createdAt,value
2023-01-19T00:00:54.994Z,4.65
2023-01-19T00:03:22.281Z,5.90
2023-01-19T00:05:50.187Z,12.63
2023-01-19T00:08:17.728Z,9.10
2023-01-19T00:10:46.901Z,5.63
2023-01-19T00:13:14.696Z,5.13
2023-01-19T00:15:42.045Z,5.28
2023-01-19T00:18:10.881Z,6.43
2023-01-19T00:20:38.498Z,6.20
2023-01-19T00:23:07.690Z,7.28
2023-01-19T00:25:35.012Z,6.55
2023-01-19T00:28:02.253Z,5.07
2023-01-19T00:30:29.519Z,5.43
2023-01-19T00:32:56.940Z,4.88
2023-01-19T00:35:24.277Z,4.80
2023-01-19T00:37:51.549Z,5.57
2023-01-19T00:40:18.998Z,4.47
2023-01-19T00:42:48.430Z,4.60
2023-01-19T00:45:18.797Z,4.22
2023-01-19T00:47:46.622Z,4.43
2023-01-19T00:50:17.577Z,4.07
2023-01-19T00:52:45.518Z,4.57
2023-01-19T00:55:14.047Z,3.97
2023-01-19T00:57:41.541Z,6.13
2023-01-19T01:00:11.686Z,4.35
2023-01-19T01:02:39.996Z,4.28
2023-01-19T01:05:07.434Z,3.80
2023-01-19T01:07:44.527Z,5.70
2023-01-19T01:10:13.419Z,4.82
2023-01-19T01:12:41.326Z,4.35
2023-01-19T01:15:23.092Z,3.50
2023-01-19T01:17:53.208Z,4.60
2023-01-19T01:20:22.255Z,4.50
2023-01-19T01:22:50.975Z,4.43
2023-01-19T01:25:19.227Z,4.53
2023-01-19T01:27:46.406Z,4.25
2023-01-19T01:30:15.335Z,3.60
2023-01-19T01:32:42.845Z,3.10
2023-01-19T01:35:10.144Z,3.83
2023-01-19T01:37:38.043Z,3.80
2023-01-19T01:40:06.552Z,4.18
2023-01-19T01:42:34.768Z,5.00
2023-01-19T01:45:03.235Z,3.78
2023-01-19T01:47:37.324Z,3.90
2023-01-19T01:50:13.739Z,4.25
2023-01-19T01:53:06.422Z,3.50
2023-01-19T01:55:37.664Z,3.67
2023-01-19T01:58:05.666Z,3.72
2023-01-19T02:00:53.082Z,3.45
2023-01-19T02:03:20.905Z,4.10
2023-01-19T02:05:48.101Z,3.85
2023-01-19T02:08:55.271Z,3.85
2023-01-19T02:11:41.626Z,3.70
2023-01-19T02:14:08.801Z,3.67
2023-01-19T02:16:37.142Z,3.85
2023-01-19T02:19:05.436Z,4.07
2023-01-19T02:21:36.746Z,3.88
2023-01-19T02:24:04.239Z,4.45
2023-01-19T02:26:36.009Z,3.80
2023-01-19T02:29:04.894Z,4.27
2023-01-19T02:31:33.352Z,3.70
2023-01-19T02:34:01.264Z,3.50
2023-01-19T02:36:48.700Z,3.40
2023-01-19T02:39:16.414Z,4.07
2023-01-19T02:41:47.356Z,3.90
2023-01-19T02:44:15.350Z,3.72
2023-01-19T02:46:42.523Z,4.22
2023-01-19T02:49:09.763Z,4.07
2023-01-19T02:51:36.885Z,4.47
2023-01-19T02:54:06.947Z,4.07
2023-01-19T02:56:53.802Z,4.50
2023-01-19T02:59:37.351Z,5.82
2023-01-19T03:02:23.339Z,5.78
2023-01-19T03:05:05.166Z,6.57
2023-01-19T03:07:39.098Z,6.78
2023-01-19T03:10:09.176Z,7.88
2023-01-19T03:12:41.547Z,10.20
2023-01-19T03:15:18.788Z,9.98
2023-01-19T03:17:48.374Z,6.03
2023-01-19T03:20:18.884Z,5.05
2023-01-19T03:22:46.544Z,6.50
2023-01-19T03:25:15.299Z,6.90
2023-01-19T03:27:43.894Z,5.28
2023-01-19T03:30:18.522Z,5.95
2023-01-19T03:32:49.267Z,5.07
2023-01-19T03:35:18.811Z,5.38
2023-01-19T03:37:47.983Z,5.10
2023-01-19T03:40:15.418Z,5.00
2023-01-19T03:42:43.277Z,4.78
2023-01-19T03:45:12.091Z,4.95
2023-01-19T03:47:39.527Z,4.25
2023-01-19T03:50:09.606Z,5.05
2023-01-19T03:52:36.792Z,5.93
2023-01-19T03:55:05.730Z,6.32
2023-01-19T03:57:33.079Z,4.97
2023-01-19T04:00:00.272Z,4.65
2023-01-19T04:02:27.584Z,5.05
2023-01-19T04:04:54.778Z,5.20
2023-01-19T04:07:21.885Z,5.00
2023-01-19T04:09:49.009Z,5.50
2023-01-19T04:12:16.263Z,4.97
2023-01-19T04:14:43.386Z,4.95
2023-01-19T04:17:10.593Z,4.95
2023-01-19T04:19:37.802Z,5.10
2023-01-19T04:22:04.949Z,4.80
2023-01-19T04:24:32.190Z,4.90
2023-01-19T04:26:59.489Z,5.53
2023-01-19T04:29:26.644Z,5.18
2023-01-19T04:31:53.789Z,5.10
2023-01-19T04:34:20.980Z,5.57
2023-01-19T04:36:51.073Z,5.75
2023-01-19T04:39:18.237Z,20.50
2023-01-19T04:41:45.452Z,6.78
2023-01-19T04:44:12.651Z,6.38
2023-01-19T04:46:39.995Z,5.22
2023-01-19T04:49:07.279Z,4.80
2023-01-19T04:51:34.673Z,4.97
2023-01-19T04:54:02.390Z,5.38
2023-01-19T04:56:29.739Z,5.38
2023-01-19T04:58:56.931Z,5.47
2023-01-19T05:01:24.825Z,6.10
2023-01-19T05:03:52.145Z,8.68
2023-01-19T05:06:19.369Z,5.55
2023-01-19T05:08:46.581Z,8.65
2023-01-19T05:11:13.932Z,7.43
2023-01-19T05:13:41.155Z,5.82
2023-01-19T05:16:08.670Z,6.80
2023-01-19T05:18:36.002Z,7.68
2023-01-19T05:21:09.948Z,7.38
2023-01-19T05:23:37.179Z,15.32
2023-01-19T05:26:04.400Z,10.40
2023-01-19T05:28:32.389Z,14.65
2023-01-19T05:30:59.718Z,16.77
2023-01-19T05:33:27.825Z,13.50
2023-01-19T05:35:55.225Z,11.15
2023-01-19T05:38:34.066Z,10.07
2023-01-19T05:41:02.474Z,10.05
2023-01-19T05:43:29.727Z,8.52
2023-01-19T05:45:59.227Z,7.30
2023-01-19T05:48:26.524Z,9.13
2023-01-19T05:50:57.521Z,12.73
2023-01-19T05:53:24.731Z,14.57
2023-01-19T05:55:51.873Z,13.05
2023-01-19T05:58:19.182Z,13.18
2023-01-19T06:00:46.419Z,14.55
2023-01-19T06:03:13.656Z,13.93
2023-01-19T06:05:40.889Z,15.65
2023-01-19T06:08:08.241Z,20.67
2023-01-19T06:10:35.421Z,25.17
2023-01-19T06:13:03.126Z,33.42
2023-01-19T06:15:30.505Z,25.23
2023-01-19T06:17:57.691Z,26.60
2023-01-19T06:20:24.845Z,28.17
2023-01-19T06:22:52.609Z,28.10
2023-01-19T06:25:19.762Z,30.10
2023-01-19T06:27:46.967Z,29.90
2023-01-19T06:30:14.527Z,28.83
2023-01-19T06:32:42.314Z,29.80
2023-01-19T06:35:09.793Z,27.50
2023-01-19T06:37:37.856Z,25.17
2023-01-19T06:40:05.382Z,26.30
2023-01-19T06:42:32.579Z,18.75
2023-01-19T06:44:59.992Z,19.83
2023-01-19T06:47:27.181Z,16.88
2023-01-19T06:49:54.417Z,17.20
2023-01-19T06:52:21.643Z,16.83
2023-01-19T06:54:48.814Z,14.95
2023-01-19T06:57:17.277Z,19.17
2023-01-19T06:59:44.570Z,20.50
2023-01-19T07:02:26.279Z,13.57
2023-01-19T07:04:55.862Z,13.45
2023-01-19T07:07:23.085Z,15.98
2023-01-19T07:09:50.257Z,10.75
2023-01-19T07:12:21.166Z,22.70
2023-01-19T07:14:49.481Z,16.42
2023-01-19T07:17:16.817Z,16.88
2023-01-19T07:19:43.948Z,19.02
2023-01-19T07:22:11.092Z,20.83
2023-01-19T07:24:38.413Z,24.00
2023-01-19T07:27:05.869Z,23.58
2023-01-19T07:29:33.094Z,21.77
2023-01-19T07:32:00.657Z,20.80
2023-01-19T07:34:28.128Z,19.60
2023-01-19T07:36:56.401Z,17.70
2023-01-19T07:39:23.645Z,16.55
2023-01-19T07:41:50.853Z,15.85
2023-01-19T07:44:18.056Z,14.80
2023-01-19T07:46:45.316Z,14.60
2023-01-19T07:49:13.294Z,14.73
2023-01-19T07:51:40.488Z,13.82
2023-01-19T07:54:08.618Z,12.52
2023-01-19T07:56:35.895Z,12.63
2023-01-19T07:59:03.358Z,12.40
2023-01-19T08:01:31.601Z,12.57
2023-01-19T08:03:58.975Z,12.60
2023-01-19T08:06:32.737Z,12.30
2023-01-19T08:09:00.188Z,12.48
2023-01-19T08:11:27.311Z,12.27
2023-01-19T08:13:54.562Z,13.52
2023-01-19T08:16:21.811Z,12.27
2023-01-19T08:18:49.039Z,13.52
2023-01-19T08:21:16.580Z,14.95
2023-01-19T08:23:43.785Z,12.43
2023-01-19T08:26:23.885Z,14.38
2023-01-19T08:28:51.055Z,11.40
2023-01-19T08:31:21.866Z,12.05
2023-01-19T08:33:51.231Z,11.15
2023-01-19T08:36:18.479Z,10.55
2023-01-19T08:38:46.332Z,11.50
2023-01-19T08:41:13.963Z,10.50
2023-01-19T08:43:41.250Z,8.95
2023-01-19T08:46:08.538Z,9.88
2023-01-19T08:48:37.756Z,10.35
2023-01-19T08:51:05.863Z,10.48
2023-01-19T08:53:33.059Z,10.48
2023-01-19T08:56:01.314Z,9.30
2023-01-19T08:58:28.841Z,8.70
2023-01-19T09:00:56.243Z,7.45
2023-01-19T09:03:23.730Z,9.10
2023-01-19T09:05:51.077Z,8.88
2023-01-19T09:08:19.190Z,8.43
2023-01-19T09:10:47.630Z,9.20
2023-01-19T09:13:15.144Z,8.35
2023-01-19T09:15:43.398Z,8.57
2023-01-19T09:18:13.593Z,7.68
2023-01-19T09:20:43.667Z,8.05
2023-01-19T09:23:12.110Z,7.30
2023-01-19T09:25:40.105Z,7.68
2023-01-19T09:28:09.234Z,7.63
2023-01-19T09:30:37.489Z,7.82
2023-01-19T09:33:11.070Z,7.93
2023-01-19T09:35:39.381Z,7.15
2023-01-19T09:38:07.541Z,8.10
2023-01-19T09:40:36.398Z,8.60
2023-01-19T09:43:13.120Z,7.28
2023-01-19T09:45:46.529Z,8.95
2023-01-19T09:48:22.822Z,7.95
2023-01-19T09:50:50.340Z,7.95
2023-01-19T09:53:21.398Z,9.07
2023-01-19T09:55:50.023Z,8.13
2023-01-19T09:58:19.307Z,8.40
2023-01-19T10:00:48.924Z,7.85
2023-01-19T10:03:16.823Z,8.93
2023-01-19T10:05:46.973Z,8.00
2023-01-19T10:08:24.707Z,8.15
2023-01-19T10:10:56.121Z,7.95
2023-01-19T10:13:30.790Z,8.00
2023-01-19T10:16:16.711Z,7.18
2023-01-19T10:18:48.461Z,6.88
2023-01-19T10:21:18.414Z,7.72
2023-01-19T10:23:54.357Z,7.60
2023-01-19T10:26:52.604Z,7.03
2023-01-19T10:29:23.076Z,7.72
2023-01-19T10:31:52.618Z,6.97
2023-01-19T10:34:23.223Z,6.68
2023-01-19T10:36:51.364Z,6.80
2023-01-19T10:39:19.415Z,6.80
2023-01-19T10:41:56.611Z,7.40
2023-01-19T10:44:30.871Z,6.78
2023-01-19T10:46:59.821Z,6.57
2023-01-19T10:49:47.671Z,6.90
2023-01-19T10:52:29.282Z,6.55
2023-01-19T10:54:56.806Z,6.30
2023-01-19T10:57:27.208Z,5.13
2023-01-19T10:59:54.446Z,5.97
2023-01-19T11:02:29.739Z,5.22
2023-01-19T11:05:01.436Z,5.80
2023-01-19T11:07:33.422Z,5.43
2023-01-19T11:10:20.873Z,5.10
2023-01-19T11:13:15.848Z,4.32
2023-01-19T11:15:46.189Z,5.60
2023-01-19T11:18:24.159Z,5.15
2023-01-19T11:20:52.915Z,4.15
2023-01-19T11:23:33.991Z,5.78
2023-01-19T11:26:02.308Z,4.22
2023-01-19T11:28:29.569Z,5.53
2023-01-19T11:30:56.786Z,5.20
2023-01-19T11:33:44.298Z,5.32
2023-01-19T11:36:16.890Z,4.63
2023-01-19T11:38:45.151Z,5.25
2023-01-19T11:41:22.488Z,5.35
2023-01-19T11:43:52.163Z,5.88
2023-01-19T11:46:19.791Z,5.95
2023-01-19T11:48:57.303Z,5.47
2023-01-19T11:51:25.893Z,5.53
2023-01-19T11:53:54.105Z,5.05
2023-01-19T11:56:24.284Z,5.55
2023-01-19T11:58:51.549Z,5.85
2023-01-19T12:01:21.105Z,5.65
2023-01-19T12:04:00.139Z,5.35
2023-01-19T12:06:31.214Z,5.50
2023-01-19T12:09:02.482Z,5.68
2023-01-19T12:11:38.466Z,5.35
2023-01-19T12:14:07.569Z,5.43
2023-01-19T12:16:35.331Z,5.60
2023-01-19T12:19:05.848Z,5.72
2023-01-19T12:21:32.995Z,5.07
2023-01-19T12:24:16.409Z,5.40
2023-01-19T12:26:55.287Z,5.10
2023-01-19T12:29:24.662Z,5.30
2023-01-19T12:32:10.783Z,5.47
2023-01-19T12:34:45.234Z,5.68
2023-01-19T12:37:31.384Z,6.35
2023-01-19T12:40:01.411Z,6.22
2023-01-19T12:42:29.365Z,6.55
2023-01-19T12:45:05.519Z,7.05
2023-01-19T12:47:32.833Z,7.10
2023-01-19T12:50:07.009Z,7.22
2023-01-19T12:52:41.176Z,7.22
2023-01-19T12:55:14.451Z,7.40
2023-01-19T13:00:30.659Z,7.07
2023-01-19T13:03:00.899Z,6.35
2023-01-19T13:05:32.889Z,7.82
2023-01-19T13:08:04.947Z,6.90
2023-01-19T13:10:50.837Z,8.02
2023-01-19T13:13:21.084Z,6.88
2023-01-19T13:15:48.293Z,7.68
2023-01-19T13:18:25.476Z,8.13
2023-01-19T13:21:11.387Z,7.38
2023-01-19T13:23:50.488Z,7.40
2023-01-19T13:26:19.809Z,7.85
2023-01-19T13:28:51.571Z,7.57
2023-01-19T13:31:19.074Z,8.50
2023-01-19T13:33:46.271Z,7.45
2023-01-19T13:36:17.929Z,6.93
2023-01-19T13:38:45.110Z,6.90
2023-01-19T13:41:15.779Z,7.65
2023-01-19T13:43:43.619Z,6.80
2023-01-19T13:46:12.307Z,6.60
2023-01-19T13:48:39.721Z,6.88
2023-01-19T13:51:08.653Z,5.72
2023-01-19T13:53:36.587Z,6.72
2023-01-19T13:56:08.283Z,6.45
2023-01-19T13:58:35.555Z,6.30
2023-01-19T14:01:02.822Z,7.10
2023-01-19T14:03:30.124Z,5.80
2023-01-19T14:05:57.634Z,6.20
2023-01-19T14:08:25.808Z,6.32
2023-01-19T14:10:52.988Z,6.35
2023-01-19T14:13:29.499Z,6.78
2023-01-19T14:15:57.798Z,6.35
2023-01-19T14:18:27.073Z,6.53
2023-01-19T14:20:54.300Z,6.22
2023-01-19T14:23:57.904Z,6.15
2023-01-19T14:26:42.354Z,5.80
2023-01-19T14:29:27.917Z,6.45
2023-01-19T14:32:01.219Z,6.95
2023-01-19T14:36:56.016Z,6.22
2023-01-19T14:39:24.972Z,6.45
2023-01-19T14:41:53.185Z,5.85
2023-01-19T14:44:26.909Z,5.85
2023-01-19T14:46:54.599Z,5.78
2023-01-19T14:49:33.445Z,6.32
2023-01-19T14:52:02.103Z,6.03
2023-01-19T14:54:31.852Z,5.53
2023-01-19T14:56:59.020Z,6.30
2023-01-19T14:59:26.297Z,5.55
2023-01-19T15:01:53.826Z,6.30
2023-01-19T15:04:21.067Z,5.18
2023-01-19T15:06:48.479Z,5.57
2023-01-19T15:09:16.480Z,5.88
2023-01-19T15:11:45.043Z,5.70
2023-01-19T15:14:16.161Z,5.22
2023-01-19T15:16:43.748Z,5.57
2023-01-19T15:19:12.036Z,5.80
2023-01-19T15:21:42.172Z,5.32
2023-01-19T15:24:10.619Z,5.38
2023-01-19T15:26:42.707Z,5.45
2023-01-19T15:29:24.289Z,5.57
2023-01-19T15:31:52.137Z,5.72
2023-01-19T15:34:19.399Z,5.28
2023-01-19T15:36:46.572Z,5.22
2023-01-19T15:39:13.835Z,5.43
2023-01-19T15:41:41.068Z,5.57
2023-01-19T15:44:09.310Z,5.93
2023-01-19T15:46:36.501Z,5.30
2023-01-19T15:49:05.667Z,5.43
2023-01-19T15:51:33.472Z,4.93
2023-01-19T15:54:00.841Z,4.90
2023-01-19T15:56:31.867Z,4.78
2023-01-19T15:58:59.652Z,4.82
2023-01-19T16:01:31.540Z,5.65
2023-01-19T16:04:00.607Z,4.63
2023-01-19T16:06:27.943Z,5.15
2023-01-19T16:08:59.941Z,4.85
2023-01-19T16:11:27.850Z,4.93
2023-01-19T16:13:55.072Z,5.03
2023-01-19T16:16:23.624Z,5.70
2023-01-19T16:18:51.075Z,4.95
2023-01-19T16:21:18.293Z,5.70
2023-01-19T16:23:45.460Z,5.68
2023-01-19T16:26:33.972Z,5.88
2023-01-19T16:29:02.305Z,6.13
2023-01-19T16:31:29.923Z,6.05
2023-01-19T16:33:57.185Z,6.43
2023-01-19T16:36:26.158Z,6.07
2023-01-19T16:38:53.873Z,6.30
2023-01-19T16:41:21.449Z,6.35
2023-01-19T16:43:53.108Z,6.60
2023-01-19T16:46:21.887Z,6.68
2023-01-19T16:48:49.185Z,7.05
2023-01-19T16:51:16.501Z,6.05
2023-01-19T16:53:43.795Z,6.22
2023-01-19T16:56:12.699Z,6.38
2023-01-19T16:58:40.038Z,6.28
2023-01-19T17:01:11.493Z,6.72
2023-01-19T17:03:38.800Z,6.35
2023-01-19T17:06:07.057Z,6.78
2023-01-19T17:08:35.026Z,6.88
2023-01-19T17:11:03.026Z,6.72
2023-01-19T17:13:31.203Z,7.70
2023-01-19T17:16:02.140Z,7.20
2023-01-19T17:18:31.840Z,7.47
2023-01-19T17:21:02.625Z,7.18
2023-01-19T17:23:30.316Z,7.35
2023-01-19T17:25:58.374Z,7.05
2023-01-19T17:28:26.476Z,8.20
2023-01-19T17:30:54.141Z,8.35
2023-01-19T17:33:22.493Z,7.63
2023-01-19T17:35:50.086Z,7.78
2023-01-19T17:38:17.718Z,6.80
2023-01-19T17:40:44.862Z,8.68
2023-01-19T17:43:11.990Z,7.72
2023-01-19T17:45:39.322Z,8.30
2023-01-19T17:48:06.670Z,7.57
2023-01-19T17:50:37.173Z,7.60
2023-01-19T17:53:04.323Z,7.10
2023-01-19T17:55:34.257Z,7.85
2023-01-19T17:58:01.949Z,6.63
2023-01-19T18:00:29.468Z,7.07
2023-01-19T18:02:56.830Z,7.30
2023-01-19T18:05:24.074Z,6.60
2023-01-19T18:07:51.285Z,6.50
2023-01-19T18:10:18.485Z,6.28
2023-01-19T18:12:45.724Z,5.97
2023-01-19T18:15:15.396Z,7.00
2023-01-19T18:17:43.923Z,7.25
2023-01-19T18:20:11.861Z,6.90
2023-01-19T18:22:39.281Z,6.38
2023-01-19T18:25:06.577Z,6.60
2023-01-19T18:27:33.743Z,5.78
2023-01-19T18:30:00.882Z,6.70
2023-01-19T18:32:28.080Z,6.05
2023-01-19T18:34:55.823Z,5.40
2023-01-19T18:37:23.031Z,5.28
2023-01-19T18:39:50.550Z,5.55
2023-01-19T18:42:17.802Z,5.00
2023-01-19T18:44:44.987Z,5.25
2023-01-19T18:47:12.133Z,5.38
2023-01-19T18:49:42.150Z,4.75
2023-01-19T18:52:09.391Z,5.35
2023-01-19T18:54:36.564Z,4.80
2023-01-19T18:57:03.760Z,4.90
2023-01-19T18:59:30.931Z,4.60
2023-01-19T19:02:01.364Z,5.05
2023-01-19T19:04:28.608Z,4.80
2023-01-19T19:06:55.752Z,4.72
2023-01-19T19:09:22.864Z,4.47
2023-01-19T19:11:50.034Z,4.80
2023-01-19T19:14:19.474Z,4.72
2023-01-19T19:16:46.670Z,5.47
2023-01-19T19:19:15.425Z,4.95
2023-01-19T19:21:43.333Z,4.93
2023-01-19T19:24:12.235Z,5.47
2023-01-19T19:26:39.407Z,5.90
2023-01-19T19:29:06.931Z,7.47
2023-01-19T19:31:34.171Z,6.00
2023-01-19T19:34:01.365Z,6.38
2023-01-19T19:36:29.137Z,8.80
2023-01-19T19:38:56.256Z,7.18
2023-01-19T19:41:24.809Z,6.40
2023-01-19T19:43:51.947Z,5.32
2023-01-19T19:46:20.198Z,6.30
2023-01-19T19:48:47.904Z,5.63
2023-01-19T19:51:19.089Z,5.80
2023-01-19T19:53:48.957Z,5.65
2023-01-19T19:56:21.032Z,6.10
2023-01-19T19:58:48.703Z,6.38
2023-01-19T20:01:20.875Z,5.82
2023-01-19T20:03:48.404Z,5.65
2023-01-19T20:06:18.079Z,5.90
2023-01-19T20:08:45.406Z,6.07
2023-01-19T20:11:14.308Z,5.90
2023-01-19T20:13:42.609Z,6.32
2023-01-19T20:16:11.184Z,6.15
2023-01-19T20:18:39.706Z,6.30
2023-01-19T20:21:15.870Z,6.10
2023-01-19T20:23:43.455Z,6.30
2023-01-19T20:26:12.010Z,6.40
2023-01-19T20:28:39.573Z,5.65
2023-01-19T20:31:14.533Z,6.82
2023-01-19T20:33:42.032Z,6.18
2023-01-19T20:36:10.460Z,5.70
2023-01-19T20:38:38.167Z,5.43
2023-01-19T20:41:08.484Z,5.70
2023-01-19T20:43:36.502Z,5.43
2023-01-19T20:46:04.143Z,7.28
2023-01-19T20:48:32.069Z,5.93
2023-01-19T20:51:03.180Z,6.50
2023-01-19T20:53:30.671Z,6.43
2023-01-19T20:55:58.080Z,7.13
2023-01-19T20:58:25.336Z,7.20
2023-01-19T21:00:52.880Z,6.63
2023-01-19T21:03:20.109Z,7.30
2023-01-19T21:05:51.051Z,7.40
2023-01-19T21:08:18.670Z,7.43
2023-01-19T21:10:46.198Z,6.90
2023-01-19T21:13:13.333Z,7.57
2023-01-19T21:15:40.545Z,7.53
2023-01-19T21:18:07.717Z,7.00
2023-01-19T21:20:49.936Z,6.55
2023-01-19T21:23:19.080Z,6.65
2023-01-19T21:25:50.911Z,7.22
2023-01-19T21:28:18.678Z,7.78
2023-01-19T21:30:46.292Z,9.23
2023-01-19T21:33:14.554Z,8.70
2023-01-19T21:35:50.143Z,7.68
2023-01-19T21:38:17.461Z,6.78
2023-01-19T21:40:44.655Z,8.85
2023-01-19T21:43:13.506Z,9.35
2023-01-19T21:45:43.082Z,8.52
2023-01-19T21:48:10.762Z,9.43
2023-01-19T21:50:38.268Z,7.70
2023-01-19T21:53:07.790Z,7.13
2023-01-19T21:55:34.950Z,6.93
2023-01-19T21:58:02.138Z,7.60
2023-01-19T22:00:32.371Z,6.97
2023-01-19T22:03:04.176Z,7.32
2023-01-19T22:05:36.800Z,8.77
2023-01-19T22:08:04.506Z,8.13
2023-01-19T22:10:31.668Z,6.82
2023-01-19T22:12:58.913Z,8.23
2023-01-19T22:15:26.028Z,7.85
2023-01-19T22:17:53.216Z,7.07
2023-01-19T22:20:20.671Z,6.63
2023-01-19T22:22:47.902Z,8.57
2023-01-19T22:25:15.429Z,8.63
2023-01-19T22:27:42.794Z,7.13
2023-01-19T22:30:10.177Z,8.88
2023-01-19T22:32:37.336Z,7.75
2023-01-19T22:35:04.579Z,7.47
2023-01-19T22:37:35.421Z,7.38
2023-01-19T22:40:03.179Z,7.30
2023-01-19T22:42:30.374Z,7.75
2023-01-19T22:44:57.488Z,7.00
2023-01-19T22:47:24.808Z,7.28
2023-01-19T22:49:51.943Z,8.02
2023-01-19T22:52:21.787Z,8.60
2023-01-19T22:54:48.866Z,7.40
2023-01-19T22:57:16.045Z,7.93
2023-01-19T22:59:43.685Z,8.00
2023-01-19T23:02:12.367Z,7.03
2023-01-19T23:04:39.604Z,7.32
2023-01-19T23:07:09.288Z,7.40
2023-01-19T23:09:38.065Z,6.82
2023-01-19T23:12:05.433Z,7.47
2023-01-19T23:14:32.699Z,7.55
2023-01-19T23:16:59.853Z,7.82
2023-01-19T23:19:26.978Z,7.75
2023-01-19T23:21:54.149Z,8.93
2023-01-19T23:24:21.353Z,10.10
2023-01-19T23:26:49.967Z,9.55
2023-01-19T23:29:18.018Z,10.27
2023-01-19T23:31:49.621Z,9.00
2023-01-19T23:34:16.818Z,10.18
2023-01-19T23:36:44.116Z,9.95
2023-01-19T23:39:18.848Z,9.43
2023-01-19T23:41:46.085Z,9.30
2023-01-19T23:44:13.315Z,9.77
2023-01-19T23:46:40.439Z,8.23
2023-01-19T23:49:07.636Z,8.43
2023-01-19T23:51:34.960Z,8.20
2023-01-19T23:54:02.213Z,8.23
2023-01-19T23:56:30.758Z,8.65
2023-01-19T23:58:59.377Z,9.13
